sensor_id;sensor_type;location;lat;lon;timestamp;P1;durP1;ratioP1;P2;durP2;ratioP2
2480;SDS011;57396;48.742;9.128;2023-04-30T00:01:54;4.30;;;3.90;;
2480;SDS011;57396;48.742;9.128;2023-04-30T00:04:19;7.00;;;4.23;;
2480;SDS011;57396;48.742;9.128;2023-04-30T00:06:45;5.97;;;4.60;;
2480;SDS011;57396;48.742;9.128;2023-04-30T00:09:10;4.97;;;4.47;;
2480;SDS011;57396;48.742;9.128;2023-04-30T00:11:36;5.23;;;4.70;;
2480;SDS011;57396;48.742;9.128;2023-04-30T00:14:01;4.87;;;4.47;;
2480;SDS011;57396;48.742;9.128;2023-04-30T00:16:27;5.50;;;4.30;;
2480;SDS011;57396;48.742;9.128;2023-04-30T00:18:52;4.73;;;4.10;;
2480;SDS011;57396;48.742;9.128;2023-04-30T00:21:18;6.37;;;4.53;;
2480;SDS011;57396;48.742;9.128;2023-04-30T00:23:43;5.83;;;4.30;;
2480;SDS011;57396;48.742;9.128;2023-04-30T00:26:09;5.67;;;4.60;;
2480;SDS011;57396;48.742;9.128;2023-04-30T00:28:34;6.47;;;4.90;;
2480;SDS011;57396;48.742;9.128;2023-04-30T00:31:00;6.07;;;5.50;;
2480;SDS011;57396;48.742;9.128;2023-04-30T00:33:25;7.07;;;4.90;;
2480;SDS011;57396;48.742;9.128;2023-04-30T00:35:50;5.57;;;5.07;;
2480;SDS011;57396;48.742;9.128;2023-04-30T00:38:16;6.47;;;5.87;;
2480;SDS011;57396;48.742;9.128;2023-04-30T00:40:41;7.20;;;5.10;;
2480;SDS011;57396;48.742;9.128;2023-04-30T00:43:07;5.70;;;5.10;;
2480;SDS011;57396;48.742;9.128;2023-04-30T00:45:33;5.90;;;5.00;;
2480;SDS011;57396;48.742;9.128;2023-04-30T00:47:58;6.13;;;5.53;;
2480;SDS011;57396;48.742;9.128;2023-04-30T00:50:24;4.67;;;4.20;;
2480;SDS011;57396;48.742;9.128;2023-04-30T00:52:49;6.77;;;4.83;;
2480;SDS011;57396;48.742;9.128;2023-04-30T00:55:15;5.43;;;4.93;;
2480;SDS011;57396;48.742;9.128;2023-04-30T00:57:40;5.70;;;4.63;;
2480;SDS011;57396;48.742;9.128;2023-04-30T01:00:06;6.43;;;5.57;;
2480;SDS011;57396;48.742;9.128;2023-04-30T01:02:35;6.50;;;5.37;;
2480;SDS011;57396;48.742;9.128;2023-04-30T01:05:04;6.90;;;5.60;;
2480;SDS011;57396;48.742;9.128;2023-04-30T01:07:30;6.40;;;5.60;;
2480;SDS011;57396;48.742;9.128;2023-04-30T01:09:56;5.27;;;4.70;;
2480;SDS011;57396;48.742;9.128;2023-04-30T01:12:36;6.23;;;5.43;;
2480;SDS011;57396;48.742;9.128;2023-04-30T01:20:16;6.57;;;4.87;;
2480;SDS011;57396;48.742;9.128;2023-04-30T01:30:26;8.73;;;6.13;;
2480;SDS011;57396;48.742;9.128;2023-04-30T01:32:52;7.63;;;6.37;;
2480;SDS011;57396;48.742;9.128;2023-04-30T01:35:17;6.73;;;5.67;;
2480;SDS011;57396;48.742;9.128;2023-04-30T01:37:57;7.70;;;6.00;;
2480;SDS011;57396;48.742;9.128;2023-04-30T01:40:43;9.23;;;6.00;;
2480;SDS011;57396;48.742;9.128;2023-04-30T01:43:19;9.60;;;7.03;;
2480;SDS011;57396;48.742;9.128;2023-04-30T01:45:57;8.90;;;6.97;;
2480;SDS011;57396;48.742;9.128;2023-04-30T01:48:58;9.90;;;5.83;;
2480;SDS011;57396;48.742;9.128;2023-04-30T01:51:31;11.23;;;7.00;;
2480;SDS011;57396;48.742;9.128;2023-04-30T01:54:16;6.77;;;5.93;;
2480;SDS011;57396;48.742;9.128;2023-04-30T01:57:10;8.07;;;6.47;;
2480;SDS011;57396;48.742;9.128;2023-04-30T01:59:38;7.30;;;6.50;;
2480;SDS011;57396;48.742;9.128;2023-04-30T02:02:04;7.90;;;7.20;;
2480;SDS011;57396;48.742;9.128;2023-04-30T02:04:30;8.57;;;7.20;;
2480;SDS011;57396;48.742;9.128;2023-04-30T02:06:55;11.50;;;7.90;;
2480;SDS011;57396;48.742;9.128;2023-04-30T02:09:22;8.70;;;6.97;;
2480;SDS011;57396;48.742;9.128;2023-04-30T02:11:48;10.30;;;6.87;;
2480;SDS011;57396;48.742;9.128;2023-04-30T02:14:14;10.63;;;7.87;;
2480;SDS011;57396;48.742;9.128;2023-04-30T02:16:39;8.47;;;7.57;;
2480;SDS011;57396;48.742;9.128;2023-04-30T02:19:05;10.33;;;7.80;;
2480;SDS011;57396;48.742;9.128;2023-04-30T02:21:31;10.17;;;7.73;;
2480;SDS011;57396;48.742;9.128;2023-04-30T02:23:56;10.70;;;8.10;;
2480;SDS011;57396;48.742;9.128;2023-04-30T02:26:21;9.83;;;8.00;;
2480;SDS011;57396;48.742;9.128;2023-04-30T02:28:47;8.73;;;7.83;;
2480;SDS011;57396;48.742;9.128;2023-04-30T02:31:12;9.83;;;8.30;;
2480;SDS011;57396;48.742;9.128;2023-04-30T02:33:38;12.30;;;8.60;;
2480;SDS011;57396;48.742;9.128;2023-04-30T02:36:03;8.87;;;7.93;;
2480;SDS011;57396;48.742;9.128;2023-04-30T02:38:29;9.83;;;8.00;;
2480;SDS011;57396;48.742;9.128;2023-04-30T02:40:54;11.40;;;8.67;;
2480;SDS011;57396;48.742;9.128;2023-04-30T02:43:20;10.80;;;8.30;;
2480;SDS011;57396;48.742;9.128;2023-04-30T02:45:45;10.80;;;9.27;;
2480;SDS011;57396;48.742;9.128;2023-04-30T02:48:11;12.33;;;9.30;;
2480;SDS011;57396;48.742;9.128;2023-04-30T02:50:36;9.30;;;8.20;;
2480;SDS011;57396;48.742;9.128;2023-04-30T02:53:02;12.83;;;8.73;;
2480;SDS011;57396;48.742;9.128;2023-04-30T02:55:27;11.77;;;9.80;;
2480;SDS011;57396;48.742;9.128;2023-04-30T02:57:52;10.87;;;8.97;;
2480;SDS011;57396;48.742;9.128;2023-04-30T03:00:18;10.50;;;9.17;;
2480;SDS011;57396;48.742;9.128;2023-04-30T03:02:44;14.17;;;9.57;;
2480;SDS011;57396;48.742;9.128;2023-04-30T03:05:09;12.20;;;9.30;;
2480;SDS011;57396;48.742;9.128;2023-04-30T03:07:35;14.30;;;9.70;;
2480;SDS011;57396;48.742;9.128;2023-04-30T03:10:00;17.00;;;9.20;;
2480;SDS011;57396;48.742;9.128;2023-04-30T03:12:26;12.67;;;8.80;;
2480;SDS011;57396;48.742;9.128;2023-04-30T03:14:51;10.50;;;9.10;;
2480;SDS011;57396;48.742;9.128;2023-04-30T03:17:17;13.70;;;9.70;;
2480;SDS011;57396;48.742;9.128;2023-04-30T03:19:42;19.27;;;9.60;;
2480;SDS011;57396;48.742;9.128;2023-04-30T03:22:09;10.33;;;8.50;;
2480;SDS011;57396;48.742;9.128;2023-04-30T03:24:35;10.57;;;9.30;;
2480;SDS011;57396;48.742;9.128;2023-04-30T03:27:00;11.30;;;8.97;;
2480;SDS011;57396;48.742;9.128;2023-04-30T03:29:26;10.60;;;8.87;;
2480;SDS011;57396;48.742;9.128;2023-04-30T03:31:51;15.23;;;9.27;;
2480;SDS011;57396;48.742;9.128;2023-04-30T03:34:17;16.63;;;9.60;;
2480;SDS011;57396;48.742;9.128;2023-04-30T03:36:42;10.90;;;9.57;;
2480;SDS011;57396;48.742;9.128;2023-04-30T03:39:07;10.83;;;9.43;;
2480;SDS011;57396;48.742;9.128;2023-04-30T03:41:34;10.27;;;8.90;;
2480;SDS011;57396;48.742;9.128;2023-04-30T03:43:59;13.60;;;8.87;;
2480;SDS011;57396;48.742;9.128;2023-04-30T03:46:25;16.10;;;9.97;;
2480;SDS011;57396;48.742;9.128;2023-04-30T03:48:50;13.33;;;8.50;;
2480;SDS011;57396;48.742;9.128;2023-04-30T03:51:17;14.10;;;9.47;;
2480;SDS011;57396;48.742;9.128;2023-04-30T03:53:43;11.90;;;9.73;;
2480;SDS011;57396;48.742;9.128;2023-04-30T03:56:09;10.63;;;8.97;;
2480;SDS011;57396;48.742;9.128;2023-04-30T03:58:35;11.47;;;9.57;;
2480;SDS011;57396;48.742;9.128;2023-04-30T04:01:00;11.20;;;9.53;;
2480;SDS011;57396;48.742;9.128;2023-04-30T04:03:25;13.97;;;8.77;;
2480;SDS011;57396;48.742;9.128;2023-04-30T04:05:51;14.33;;;9.23;;
2480;SDS011;57396;48.742;9.128;2023-04-30T04:08:16;10.30;;;8.17;;
2480;SDS011;57396;48.742;9.128;2023-04-30T04:10:42;11.97;;;7.67;;
2480;SDS011;57396;48.742;9.128;2023-04-30T04:13:07;12.47;;;8.07;;
2480;SDS011;57396;48.742;9.128;2023-04-30T04:15:33;9.80;;;7.37;;
2480;SDS011;57396;48.742;9.128;2023-04-30T04:17:58;8.13;;;7.10;;
2480;SDS011;57396;48.742;9.128;2023-04-30T04:20:24;13.27;;;7.47;;
2480;SDS011;57396;48.742;9.128;2023-04-30T04:22:50;11.30;;;8.20;;
2480;SDS011;57396;48.742;9.128;2023-04-30T04:25:15;11.30;;;8.13;;
2480;SDS011;57396;48.742;9.128;2023-04-30T04:27:42;13.50;;;8.87;;
2480;SDS011;57396;48.742;9.128;2023-04-30T04:30:07;16.80;;;9.17;;
2480;SDS011;57396;48.742;9.128;2023-04-30T04:32:33;8.10;;;7.30;;
2480;SDS011;57396;48.742;9.128;2023-04-30T04:35:10;9.23;;;7.57;;
2480;SDS011;57396;48.742;9.128;2023-04-30T04:37:39;8.23;;;7.43;;
2480;SDS011;57396;48.742;9.128;2023-04-30T04:40:05;10.43;;;8.40;;
2480;SDS011;57396;48.742;9.128;2023-04-30T04:42:31;9.60;;;8.37;;
2480;SDS011;57396;48.742;9.128;2023-04-30T04:44:56;10.83;;;9.30;;
2480;SDS011;57396;48.742;9.128;2023-04-30T04:47:22;11.20;;;8.70;;
2480;SDS011;57396;48.742;9.128;2023-04-30T04:49:47;11.60;;;9.37;;
2480;SDS011;57396;48.742;9.128;2023-04-30T04:52:13;13.10;;;8.83;;
2480;SDS011;57396;48.742;9.128;2023-04-30T04:54:38;12.80;;;9.37;;
2480;SDS011;57396;48.742;9.128;2023-04-30T04:57:04;10.67;;;8.93;;
2480;SDS011;57396;48.742;9.128;2023-04-30T04:59:29;9.63;;;8.23;;
2480;SDS011;57396;48.742;9.128;2023-04-30T05:01:55;13.40;;;7.80;;
2480;SDS011;57396;48.742;9.128;2023-04-30T05:04:20;9.70;;;8.70;;
2480;SDS011;57396;48.742;9.128;2023-04-30T05:06:46;9.53;;;8.53;;
2480;SDS011;57396;48.742;9.128;2023-04-30T05:09:11;10.97;;;8.23;;
2480;SDS011;57396;48.742;9.128;2023-04-30T05:11:37;12.97;;;9.00;;
2480;SDS011;57396;48.742;9.128;2023-04-30T05:14:02;14.20;;;9.10;;
2480;SDS011;57396;48.742;9.128;2023-04-30T05:16:28;10.53;;;9.37;;
2480;SDS011;57396;48.742;9.128;2023-04-30T05:18:54;13.13;;;9.00;;
2480;SDS011;57396;48.742;9.128;2023-04-30T05:21:19;10.47;;;8.67;;
2480;SDS011;57396;48.742;9.128;2023-04-30T05:23:45;11.70;;;8.77;;
2480;SDS011;57396;48.742;9.128;2023-04-30T05:26:11;13.10;;;9.50;;
2480;SDS011;57396;48.742;9.128;2023-04-30T05:28:36;11.70;;;10.30;;
2480;SDS011;57396;48.742;9.128;2023-04-30T05:31:01;9.97;;;8.30;;
2480;SDS011;57396;48.742;9.128;2023-04-30T05:33:27;12.53;;;10.53;;
2480;SDS011;57396;48.742;9.128;2023-04-30T05:35:52;12.83;;;9.90;;
2480;SDS011;57396;48.742;9.128;2023-04-30T05:38:18;12.70;;;10.30;;
2480;SDS011;57396;48.742;9.128;2023-04-30T05:40:43;13.87;;;10.13;;
2480;SDS011;57396;48.742;9.128;2023-04-30T05:43:09;12.00;;;10.10;;
2480;SDS011;57396;48.742;9.128;2023-04-30T05:45:34;13.73;;;10.07;;
2480;SDS011;57396;48.742;9.128;2023-04-30T05:47:59;12.00;;;10.70;;
2480;SDS011;57396;48.742;9.128;2023-04-30T05:50:26;16.77;;;9.30;;
2480;SDS011;57396;48.742;9.128;2023-04-30T05:52:51;12.30;;;9.47;;
2480;SDS011;57396;48.742;9.128;2023-04-30T05:55:16;11.10;;;9.90;;
2480;SDS011;57396;48.742;9.128;2023-04-30T05:57:42;12.17;;;9.87;;
2480;SDS011;57396;48.742;9.128;2023-04-30T06:00:07;11.13;;;9.30;;
2480;SDS011;57396;48.742;9.128;2023-04-30T06:02:33;12.83;;;10.40;;
2480;SDS011;57396;48.742;9.128;2023-04-30T06:04:59;10.50;;;9.13;;
2480;SDS011;57396;48.742;9.128;2023-04-30T06:07:26;11.70;;;9.57;;
2480;SDS011;57396;48.742;9.128;2023-04-30T06:09:51;11.30;;;9.50;;
2480;SDS011;57396;48.742;9.128;2023-04-30T06:12:17;10.33;;;9.33;;
2480;SDS011;57396;48.742;9.128;2023-04-30T06:14:42;9.90;;;8.83;;
2480;SDS011;57396;48.742;9.128;2023-04-30T06:17:10;14.47;;;9.00;;
2480;SDS011;57396;48.742;9.128;2023-04-30T06:19:36;12.27;;;10.40;;
2480;SDS011;57396;48.742;9.128;2023-04-30T06:22:03;14.57;;;11.30;;
2480;SDS011;57396;48.742;9.128;2023-04-30T06:24:28;14.33;;;9.83;;
2480;SDS011;57396;48.742;9.128;2023-04-30T06:26:54;11.37;;;10.13;;
2480;SDS011;57396;48.742;9.128;2023-04-30T06:29:20;12.93;;;10.47;;
2480;SDS011;57396;48.742;9.128;2023-04-30T06:31:48;13.60;;;11.10;;
2480;SDS011;57396;48.742;9.128;2023-04-30T06:34:17;11.90;;;9.50;;
2480;SDS011;57396;48.742;9.128;2023-04-30T06:36:43;10.73;;;9.63;;
2480;SDS011;57396;48.742;9.128;2023-04-30T06:39:08;10.23;;;9.13;;
2480;SDS011;57396;48.742;9.128;2023-04-30T06:41:34;12.77;;;10.33;;
2480;SDS011;57396;48.742;9.128;2023-04-30T06:43:59;11.53;;;9.03;;
2480;SDS011;57396;48.742;9.128;2023-04-30T06:46:25;11.20;;;9.30;;
2480;SDS011;57396;48.742;9.128;2023-04-30T06:48:50;11.57;;;9.03;;
2480;SDS011;57396;48.742;9.128;2023-04-30T06:51:16;10.27;;;9.17;;
2480;SDS011;57396;48.742;9.128;2023-04-30T06:53:41;12.90;;;8.97;;
2480;SDS011;57396;48.742;9.128;2023-04-30T06:56:07;13.40;;;11.93;;
2480;SDS011;57396;48.742;9.128;2023-04-30T06:58:32;11.80;;;9.90;;
2480;SDS011;57396;48.742;9.128;2023-04-30T07:00:58;10.20;;;9.20;;
2480;SDS011;57396;48.742;9.128;2023-04-30T07:03:23;13.30;;;9.33;;
2480;SDS011;57396;48.742;9.128;2023-04-30T07:05:49;10.67;;;8.87;;
2480;SDS011;57396;48.742;9.128;2023-04-30T07:08:15;9.10;;;7.30;;
2480;SDS011;57396;48.742;9.128;2023-04-30T07:10:41;10.00;;;7.57;;
2480;SDS011;57396;48.742;9.128;2023-04-30T07:13:07;8.90;;;7.97;;
2480;SDS011;57396;48.742;9.128;2023-04-30T07:15:32;11.90;;;8.60;;
2480;SDS011;57396;48.742;9.128;2023-04-30T07:17:58;12.07;;;9.30;;
2480;SDS011;57396;48.742;9.128;2023-04-30T07:20:23;13.20;;;8.47;;
2480;SDS011;57396;48.742;9.128;2023-04-30T07:22:48;9.97;;;7.83;;
2480;SDS011;57396;48.742;9.128;2023-04-30T07:25:14;9.53;;;8.53;;
2480;SDS011;57396;48.742;9.128;2023-04-30T07:27:39;12.60;;;8.93;;
2480;SDS011;57396;48.742;9.128;2023-04-30T07:30:05;12.27;;;7.83;;
2480;SDS011;57396;48.742;9.128;2023-04-30T07:32:33;9.20;;;8.03;;
2480;SDS011;57396;48.742;9.128;2023-04-30T07:34:59;9.30;;;8.40;;
2480;SDS011;57396;48.742;9.128;2023-04-30T07:37:24;8.53;;;7.70;;
2480;SDS011;57396;48.742;9.128;2023-04-30T07:39:50;13.30;;;8.40;;
2480;SDS011;57396;48.742;9.128;2023-04-30T07:42:15;8.50;;;7.47;;
2480;SDS011;57396;48.742;9.128;2023-04-30T07:44:40;10.20;;;7.80;;
2480;SDS011;57396;48.742;9.128;2023-04-30T07:47:06;7.73;;;6.93;;
2480;SDS011;57396;48.742;9.128;2023-04-30T07:49:31;7.93;;;6.90;;
2480;SDS011;57396;48.742;9.128;2023-04-30T07:51:57;9.63;;;6.67;;
2480;SDS011;57396;48.742;9.128;2023-04-30T07:54:24;7.27;;;6.57;;
2480;SDS011;57396;48.742;9.128;2023-04-30T07:56:50;11.20;;;6.43;;
2480;SDS011;57396;48.742;9.128;2023-04-30T07:59:15;7.67;;;6.80;;
2480;SDS011;57396;48.742;9.128;2023-04-30T08:01:41;7.00;;;6.30;;
2480;SDS011;57396;48.742;9.128;2023-04-30T08:04:07;7.33;;;6.60;;
2480;SDS011;57396;48.742;9.128;2023-04-30T08:06:33;7.37;;;6.67;;
2480;SDS011;57396;48.742;9.128;2023-04-30T08:08:58;9.60;;;6.37;;
2480;SDS011;57396;48.742;9.128;2023-04-30T08:11:25;6.60;;;5.90;;
2480;SDS011;57396;48.742;9.128;2023-04-30T08:13:51;9.07;;;6.27;;
2480;SDS011;57396;48.742;9.128;2023-04-30T08:16:16;6.83;;;5.97;;
2480;SDS011;57396;48.742;9.128;2023-04-30T08:18:42;5.90;;;5.40;;
2480;SDS011;57396;48.742;9.128;2023-04-30T08:21:09;7.20;;;6.20;;
2480;SDS011;57396;48.742;9.128;2023-04-30T08:23:35;7.10;;;6.40;;
2480;SDS011;57396;48.742;9.128;2023-04-30T08:26:01;6.77;;;5.40;;
2480;SDS011;57396;48.742;9.128;2023-04-30T08:28:26;5.77;;;5.27;;
2480;SDS011;57396;48.742;9.128;2023-04-30T08:30:52;5.10;;;4.60;;
2480;SDS011;57396;48.742;9.128;2023-04-30T08:33:17;5.67;;;5.27;;
2480;SDS011;57396;48.742;9.128;2023-04-30T08:35:43;6.30;;;5.33;;
2480;SDS011;57396;48.742;9.128;2023-04-30T08:38:08;5.37;;;4.87;;
2480;SDS011;57396;48.742;9.128;2023-04-30T08:40:34;5.77;;;5.27;;
2480;SDS011;57396;48.742;9.128;2023-04-30T08:43:04;7.20;;;4.90;;
2480;SDS011;57396;48.742;9.128;2023-04-30T08:45:33;6.00;;;5.00;;
2480;SDS011;57396;48.742;9.128;2023-04-30T08:48:01;6.07;;;5.10;;
2480;SDS011;57396;48.742;9.128;2023-04-30T08:50:27;4.80;;;4.40;;
2480;SDS011;57396;48.742;9.128;2023-04-30T08:52:52;5.90;;;4.93;;
2480;SDS011;57396;48.742;9.128;2023-04-30T08:55:18;5.17;;;4.67;;
2480;SDS011;57396;48.742;9.128;2023-04-30T08:57:44;5.03;;;4.43;;
2480;SDS011;57396;48.742;9.128;2023-04-30T09:00:09;5.27;;;4.20;;
2480;SDS011;57396;48.742;9.128;2023-04-30T09:02:38;6.40;;;4.37;;
2480;SDS011;57396;48.742;9.128;2023-04-30T09:05:09;3.80;;;3.50;;
2480;SDS011;57396;48.742;9.128;2023-04-30T09:07:35;4.47;;;4.17;;
2480;SDS011;57396;48.742;9.128;2023-04-30T09:10:16;5.47;;;4.43;;
2480;SDS011;57396;48.742;9.128;2023-04-30T09:12:42;4.53;;;4.10;;
2480;SDS011;57396;48.742;9.128;2023-04-30T09:15:09;3.57;;;3.27;;
2480;SDS011;57396;48.742;9.128;2023-04-30T09:17:35;4.17;;;3.77;;
2480;SDS011;57396;48.742;9.128;2023-04-30T09:20:10;4.53;;;4.10;;
2480;SDS011;57396;48.742;9.128;2023-04-30T09:22:37;4.67;;;4.13;;
2480;SDS011;57396;48.742;9.128;2023-04-30T09:25:04;4.20;;;3.80;;
2480;SDS011;57396;48.742;9.128;2023-04-30T09:27:30;3.90;;;3.60;;
2480;SDS011;57396;48.742;9.128;2023-04-30T09:29:56;4.87;;;4.40;;
2480;SDS011;57396;48.742;9.128;2023-04-30T09:32:21;4.33;;;3.93;;
2480;SDS011;57396;48.742;9.128;2023-04-30T09:34:47;5.57;;;3.90;;
2480;SDS011;57396;48.742;9.128;2023-04-30T09:37:12;3.80;;;3.50;;
2480;SDS011;57396;48.742;9.128;2023-04-30T09:39:53;3.80;;;3.43;;
2480;SDS011;57396;48.742;9.128;2023-04-30T09:42:19;4.43;;;4.00;;
2480;SDS011;57396;48.742;9.128;2023-04-30T09:44:45;5.10;;;4.10;;
2480;SDS011;57396;48.742;9.128;2023-04-30T09:47:11;4.30;;;3.50;;
2480;SDS011;57396;48.742;9.128;2023-04-30T09:49:41;4.30;;;3.30;;
2480;SDS011;57396;48.742;9.128;2023-04-30T09:52:15;3.40;;;3.03;;
2480;SDS011;57396;48.742;9.128;2023-04-30T09:54:42;3.70;;;3.30;;
2480;SDS011;57396;48.742;9.128;2023-04-30T09:57:09;5.17;;;3.40;;
2480;SDS011;57396;48.742;9.128;2023-04-30T09:59:36;3.30;;;3.10;;
2480;SDS011;57396;48.742;9.128;2023-04-30T10:02:04;3.70;;;3.20;;
2480;SDS011;57396;48.742;9.128;2023-04-30T10:04:32;3.73;;;2.80;;
2480;SDS011;57396;48.742;9.128;2023-04-30T10:07:09;3.10;;;2.80;;
2480;SDS011;57396;48.742;9.128;2023-04-30T10:09:56;2.93;;;2.70;;
2480;SDS011;57396;48.742;9.128;2023-04-30T10:12:37;3.00;;;2.80;;
2480;SDS011;57396;48.742;9.128;2023-04-30T10:15:38;3.13;;;2.83;;
2480;SDS011;57396;48.742;9.128;2023-04-30T10:17:59;3.57;;;3.27;;
2480;SDS011;57396;48.742;9.128;2023-04-30T10:20:26;3.33;;;2.90;;
2480;SDS011;57396;48.742;9.128;2023-04-30T10:22:52;3.73;;;3.43;;
2480;SDS011;57396;48.742;9.128;2023-04-30T10:25:18;3.40;;;3.13;;
2480;SDS011;57396;48.742;9.128;2023-04-30T10:27:44;5.50;;;3.07;;
2480;SDS011;57396;48.742;9.128;2023-04-30T10:30:10;3.37;;;3.07;;
2480;SDS011;57396;48.742;9.128;2023-04-30T10:32:37;5.20;;;4.60;;
2480;SDS011;57396;48.742;9.128;2023-04-30T10:35:13;3.60;;;3.30;;
2480;SDS011;57396;48.742;9.128;2023-04-30T10:40:19;3.93;;;3.53;;
2480;SDS011;57396;48.742;9.128;2023-04-30T10:42:48;5.70;;;3.50;;
2480;SDS011;57396;48.742;9.128;2023-04-30T10:45:16;4.30;;;3.23;;
2480;SDS011;57396;48.742;9.128;2023-04-30T10:47:44;3.53;;;3.23;;
2480;SDS011;57396;48.742;9.128;2023-04-30T10:50:10;3.70;;;3.37;;
2480;SDS011;57396;48.742;9.128;2023-04-30T10:52:36;3.20;;;2.90;;
2480;SDS011;57396;48.742;9.128;2023-04-30T10:55:08;3.80;;;2.70;;
2480;SDS011;57396;48.742;9.128;2023-04-30T10:57:40;4.47;;;3.00;;
2480;SDS011;57396;48.742;9.128;2023-04-30T11:02:39;3.30;;;3.00;;
2480;SDS011;57396;48.742;9.128;2023-04-30T11:05:09;3.60;;;3.23;;
2480;SDS011;57396;48.742;9.128;2023-04-30T11:07:45;3.70;;;3.40;;
2480;SDS011;57396;48.742;9.128;2023-04-30T11:10:13;3.13;;;2.93;;
2480;SDS011;57396;48.742;9.128;2023-04-30T11:12:40;9.33;;;3.23;;
2480;SDS011;57396;48.742;9.128;2023-04-30T11:15:12;4.03;;;3.63;;
2480;SDS011;57396;48.742;9.128;2023-04-30T11:17:39;3.83;;;3.40;;
2480;SDS011;57396;48.742;9.128;2023-04-30T11:20:05;4.03;;;3.63;;
2480;SDS011;57396;48.742;9.128;2023-04-30T11:22:31;5.07;;;3.20;;
2480;SDS011;57396;48.742;9.128;2023-04-30T11:25:06;4.00;;;3.70;;
2480;SDS011;57396;48.742;9.128;2023-04-30T11:27:34;4.83;;;3.90;;
2480;SDS011;57396;48.742;9.128;2023-04-30T11:30:00;4.30;;;3.90;;
2480;SDS011;57396;48.742;9.128;2023-04-30T11:32:34;3.97;;;3.67;;
2480;SDS011;57396;48.742;9.128;2023-04-30T11:35:00;3.83;;;3.53;;
2480;SDS011;57396;48.742;9.128;2023-04-30T11:37:32;4.33;;;3.70;;
2480;SDS011;57396;48.742;9.128;2023-04-30T11:39:59;5.10;;;4.13;;
2480;SDS011;57396;48.742;9.128;2023-04-30T11:42:29;3.83;;;3.50;;
2480;SDS011;57396;48.742;9.128;2023-04-30T11:45:08;3.97;;;3.67;;
2480;SDS011;57396;48.742;9.128;2023-04-30T11:47:44;3.63;;;3.03;;
2480;SDS011;57396;48.742;9.128;2023-04-30T11:50:12;3.97;;;3.57;;
2480;SDS011;57396;48.742;9.128;2023-04-30T11:52:39;3.83;;;3.43;;
2480;SDS011;57396;48.742;9.128;2023-04-30T11:55:15;3.30;;;3.00;;
2480;SDS011;57396;48.742;9.128;2023-04-30T11:57:42;4.17;;;3.80;;
2480;SDS011;57396;48.742;9.128;2023-04-30T12:00:10;3.60;;;3.30;;
2480;SDS011;57396;48.742;9.128;2023-04-30T12:02:39;4.57;;;3.00;;
2480;SDS011;57396;48.742;9.128;2023-04-30T12:05:12;4.40;;;3.43;;
2480;SDS011;57396;48.742;9.128;2023-04-30T12:07:54;5.93;;;3.37;;
2480;SDS011;57396;48.742;9.128;2023-04-30T12:10:21;3.30;;;3.00;;
2480;SDS011;57396;48.742;9.128;2023-04-30T12:12:48;4.17;;;3.87;;
2480;SDS011;57396;48.742;9.128;2023-04-30T12:15:14;3.97;;;3.57;;
2480;SDS011;57396;48.742;9.128;2023-04-30T12:17:44;4.10;;;3.30;;
2480;SDS011;57396;48.742;9.128;2023-04-30T12:20:10;3.50;;;3.20;;
2480;SDS011;57396;48.742;9.128;2023-04-30T12:22:37;7.43;;;3.17;;
2480;SDS011;57396;48.742;9.128;2023-04-30T12:25:16;5.90;;;3.80;;
2480;SDS011;57396;48.742;9.128;2023-04-30T12:27:48;3.83;;;3.53;;
2480;SDS011;57396;48.742;9.128;2023-04-30T12:30:14;3.43;;;3.13;;
2480;SDS011;57396;48.742;9.128;2023-04-30T12:32:44;2.60;;;2.40;;
2480;SDS011;57396;48.742;9.128;2023-04-30T12:35:16;3.00;;;2.80;;
2480;SDS011;57396;48.742;9.128;2023-04-30T12:37:44;4.10;;;3.47;;
2480;SDS011;57396;48.742;9.128;2023-04-30T12:40:10;2.70;;;2.50;;
2480;SDS011;57396;48.742;9.128;2023-04-30T12:42:37;3.10;;;2.90;;
2480;SDS011;57396;48.742;9.128;2023-04-30T12:45:02;3.40;;;2.80;;
2480;SDS011;57396;48.742;9.128;2023-04-30T12:47:28;2.93;;;2.73;;
2480;SDS011;57396;48.742;9.128;2023-04-30T12:49:54;3.77;;;3.47;;
2480;SDS011;57396;48.742;9.128;2023-04-30T12:52:22;3.30;;;3.00;;
2480;SDS011;57396;48.742;9.128;2023-04-30T12:54:48;3.57;;;2.97;;
2480;SDS011;57396;48.742;9.128;2023-04-30T12:57:14;4.53;;;3.40;;
2480;SDS011;57396;48.742;9.128;2023-04-30T12:59:54;3.50;;;3.20;;
2480;SDS011;57396;48.742;9.128;2023-04-30T13:02:22;4.40;;;3.20;;
2480;SDS011;57396;48.742;9.128;2023-04-30T13:04:49;3.50;;;3.20;;
2480;SDS011;57396;48.742;9.128;2023-04-30T13:07:15;3.83;;;3.40;;
2480;SDS011;57396;48.742;9.128;2023-04-30T13:09:40;5.07;;;3.17;;
2480;SDS011;57396;48.742;9.128;2023-04-30T13:12:06;5.50;;;3.30;;
2480;SDS011;57396;48.742;9.128;2023-04-30T13:14:31;4.93;;;3.40;;
2480;SDS011;57396;48.742;9.128;2023-04-30T13:16:57;3.07;;;2.80;;
2480;SDS011;57396;48.742;9.128;2023-04-30T13:22:10;3.10;;;2.80;;
2480;SDS011;57396;48.742;9.128;2023-04-30T13:24:35;3.63;;;2.97;;
2480;SDS011;57396;48.742;9.128;2023-04-30T13:27:01;5.20;;;3.53;;
2480;SDS011;57396;48.742;9.128;2023-04-30T13:29:26;5.07;;;3.23;;
2480;SDS011;57396;48.742;9.128;2023-04-30T13:31:52;3.50;;;3.20;;
2480;SDS011;57396;48.742;9.128;2023-04-30T13:34:17;3.63;;;3.33;;
2480;SDS011;57396;48.742;9.128;2023-04-30T13:36:43;4.53;;;3.37;;
2480;SDS011;57396;48.742;9.128;2023-04-30T13:39:10;3.63;;;3.33;;
2480;SDS011;57396;48.742;9.128;2023-04-30T13:41:36;3.70;;;3.40;;
2480;SDS011;57396;48.742;9.128;2023-04-30T13:44:01;3.57;;;3.20;;
2480;SDS011;57396;48.742;9.128;2023-04-30T13:46:28;3.90;;;3.43;;
2480;SDS011;57396;48.742;9.128;2023-04-30T13:48:54;6.07;;;3.90;;
2480;SDS011;57396;48.742;9.128;2023-04-30T13:51:20;4.63;;;3.50;;
2480;SDS011;57396;48.742;9.128;2023-04-30T13:53:45;4.10;;;3.70;;
2480;SDS011;57396;48.742;9.128;2023-04-30T13:56:11;3.90;;;3.60;;
2480;SDS011;57396;48.742;9.128;2023-04-30T13:58:36;3.20;;;2.90;;
2480;SDS011;57396;48.742;9.128;2023-04-30T14:01:02;3.13;;;2.93;;
2480;SDS011;57396;48.742;9.128;2023-04-30T14:03:27;3.30;;;3.10;;
2480;SDS011;57396;48.742;9.128;2023-04-30T14:05:53;3.00;;;2.77;;
2480;SDS011;57396;48.742;9.128;2023-04-30T14:08:19;3.87;;;2.80;;
2480;SDS011;57396;48.742;9.128;2023-04-30T14:10:44;3.00;;;2.80;;
2480;SDS011;57396;48.742;9.128;2023-04-30T14:13:10;4.43;;;2.90;;
2480;SDS011;57396;48.742;9.128;2023-04-30T14:15:35;3.77;;;3.37;;
2480;SDS011;57396;48.742;9.128;2023-04-30T14:18:02;6.13;;;3.37;;
2480;SDS011;57396;48.742;9.128;2023-04-30T14:20:28;4.93;;;3.20;;
2480;SDS011;57396;48.742;9.128;2023-04-30T14:22:53;8.30;;;3.20;;
2480;SDS011;57396;48.742;9.128;2023-04-30T14:25:19;3.17;;;2.97;;
2480;SDS011;57396;48.742;9.128;2023-04-30T14:27:44;4.07;;;2.77;;
2480;SDS011;57396;48.742;9.128;2023-04-30T14:30:10;4.47;;;3.27;;
2480;SDS011;57396;48.742;9.128;2023-04-30T14:32:36;3.47;;;3.17;;
2480;SDS011;57396;48.742;9.128;2023-04-30T14:35:01;3.10;;;2.90;;
2480;SDS011;57396;48.742;9.128;2023-04-30T14:37:27;5.10;;;3.17;;
2480;SDS011;57396;48.742;9.128;2023-04-30T14:39:52;3.17;;;2.80;;
2480;SDS011;57396;48.742;9.128;2023-04-30T14:42:18;7.80;;;3.00;;
2480;SDS011;57396;48.742;9.128;2023-04-30T14:44:43;3.10;;;2.67;;
2480;SDS011;57396;48.742;9.128;2023-04-30T14:47:09;4.33;;;3.00;;
2480;SDS011;57396;48.742;9.128;2023-04-30T14:49:34;4.20;;;2.73;;
2480;SDS011;57396;48.742;9.128;2023-04-30T14:52:00;5.10;;;3.10;;
2480;SDS011;57396;48.742;9.128;2023-04-30T14:54:25;4.33;;;2.70;;
2480;SDS011;57396;48.742;9.128;2023-04-30T14:56:51;2.80;;;2.60;;
2480;SDS011;57396;48.742;9.128;2023-04-30T14:59:16;3.50;;;2.93;;
2480;SDS011;57396;48.742;9.128;2023-04-30T15:01:42;3.63;;;3.20;;
2480;SDS011;57396;48.742;9.128;2023-04-30T15:04:07;3.67;;;2.60;;
2480;SDS011;57396;48.742;9.128;2023-04-30T15:06:33;3.43;;;3.13;;
2480;SDS011;57396;48.742;9.128;2023-04-30T15:08:59;2.77;;;2.57;;
2480;SDS011;57396;48.742;9.128;2023-04-30T15:11:25;3.87;;;3.20;;
2480;SDS011;57396;48.742;9.128;2023-04-30T15:13:51;2.63;;;2.43;;
2480;SDS011;57396;48.742;9.128;2023-04-30T15:16:17;3.73;;;3.20;;